sensor_id;sensor_type;location;lat;lon;timestamp;P1;durP1;ratioP1;P2;durP2;ratioP2
75470;SDS011;64051;46.320;48.028;2023-02-13T04:02:32;4.30;;;1.77;;
75470;SDS011;64051;46.320;48.028;2023-02-13T04:07:38;5.60;;;2.47;;
75470;SDS011;64051;46.320;48.028;2023-02-13T04:10:05;5.28;;;1.75;;
75470;SDS011;64051;46.320;48.028;2023-02-13T04:15:40;5.18;;;2.58;;
75470;SDS011;64051;46.320;48.028;2023-02-13T04:18:13;7.93;;;2.90;;
75470;SDS011;64051;46.320;48.028;2023-02-13T04:20:47;5.35;;;2.47;;
75470;SDS011;64051;46.320;48.028;2023-02-13T04:23:16;7.32;;;3.17;;
75470;SDS011;64051;46.320;48.028;2023-02-13T04:25:44;9.35;;;3.58;;
75470;SDS011;64051;46.320;48.028;2023-02-13T04:28:14;11.73;;;2.53;;
75470;SDS011;64051;46.320;48.028;2023-02-13T04:30:40;5.57;;;2.55;;
75470;SDS011;64051;46.320;48.028;2023-02-13T04:33:07;5.75;;;2.40;;
75470;SDS011;64051;46.320;48.028;2023-02-13T04:35:32;4.60;;;2.38;;
75470;SDS011;64051;46.320;48.028;2023-02-13T04:37:59;5.50;;;2.47;;
75470;SDS011;64051;46.320;48.028;2023-02-13T04:40:26;7.32;;;2.58;;
75470;SDS011;64051;46.320;48.028;2023-02-13T04:42:52;12.30;;;4.88;;
75470;SDS011;64051;46.320;48.028;2023-02-13T04:45:18;3.83;;;2.17;;
75470;SDS011;64051;46.320;48.028;2023-02-13T04:47:50;5.03;;;1.98;;
75470;SDS011;64051;46.320;48.028;2023-02-13T04:50:17;6.43;;;2.70;;
75470;SDS011;64051;46.320;48.028;2023-02-13T04:52:44;6.53;;;2.88;;
75470;SDS011;64051;46.320;48.028;2023-02-13T04:55:10;6.53;;;2.47;;
75470;SDS011;64051;46.320;48.028;2023-02-13T04:57:35;8.93;;;3.50;;
75470;SDS011;64051;46.320;48.028;2023-02-13T05:00:02;14.55;;;2.40;;
75470;SDS011;64051;46.320;48.028;2023-02-13T05:02:30;3.22;;;2.08;;
75470;SDS011;64051;46.320;48.028;2023-02-13T05:04:56;4.20;;;2.03;;
75470;SDS011;64051;46.320;48.028;2023-02-13T05:07:22;5.07;;;2.58;;
75470;SDS011;64051;46.320;48.028;2023-02-13T05:09:48;9.82;;;4.03;;
75470;SDS011;64051;46.320;48.028;2023-02-13T05:12:14;5.43;;;3.25;;
75470;SDS011;64051;46.320;48.028;2023-02-13T05:14:40;12.00;;;4.25;;
75470;SDS011;64051;46.320;48.028;2023-02-13T05:17:05;10.48;;;2.92;;
75470;SDS011;64051;46.320;48.028;2023-02-13T05:19:31;6.38;;;2.30;;
75470;SDS011;64051;46.320;48.028;2023-02-13T05:21:57;8.98;;;3.35;;
75470;SDS011;64051;46.320;48.028;2023-02-13T05:24:42;4.97;;;1.63;;
75470;SDS011;64051;46.320;48.028;2023-02-13T05:27:08;15.25;;;2.13;;
75470;SDS011;64051;46.320;48.028;2023-02-13T05:29:33;15.30;;;2.75;;
75470;SDS011;64051;46.320;48.028;2023-02-13T05:31:59;7.32;;;2.53;;
75470;SDS011;64051;46.320;48.028;2023-02-13T05:34:26;11.02;;;2.90;;
75470;SDS011;64051;46.320;48.028;2023-02-13T05:36:52;14.05;;;3.47;;
75470;SDS011;64051;46.320;48.028;2023-02-13T05:39:19;10.18;;;2.78;;
75470;SDS011;64051;46.320;48.028;2023-02-13T05:41:45;24.33;;;3.05;;
75470;SDS011;64051;46.320;48.028;2023-02-13T05:44:12;5.90;;;2.70;;
75470;SDS011;64051;46.320;48.028;2023-02-13T05:46:39;19.98;;;2.90;;
75470;SDS011;64051;46.320;48.028;2023-02-13T05:49:07;25.55;;;3.58;;
75470;SDS011;64051;46.320;48.028;2023-02-13T05:51:34;7.43;;;3.25;;
75470;SDS011;64051;46.320;48.028;2023-02-13T05:54:00;8.88;;;2.75;;
75470;SDS011;64051;46.320;48.028;2023-02-13T05:56:26;8.57;;;2.33;;
75470;SDS011;64051;46.320;48.028;2023-02-13T05:58:55;11.40;;;3.78;;
75470;SDS011;64051;46.320;48.028;2023-02-13T06:01:22;11.18;;;3.28;;
75470;SDS011;64051;46.320;48.028;2023-02-13T06:03:48;6.25;;;2.63;;
75470;SDS011;64051;46.320;48.028;2023-02-13T06:06:15;5.15;;;2.25;;
75470;SDS011;64051;46.320;48.028;2023-02-13T06:08:41;6.72;;;2.30;;
75470;SDS011;64051;46.320;48.028;2023-02-13T06:11:07;6.13;;;2.55;;
75470;SDS011;64051;46.320;48.028;2023-02-13T06:13:36;7.60;;;2.97;;
75470;SDS011;64051;46.320;48.028;2023-02-13T06:16:05;7.90;;;3.53;;
75470;SDS011;64051;46.320;48.028;2023-02-13T06:18:32;8.60;;;3.40;;
75470;SDS011;64051;46.320;48.028;2023-02-13T06:20:59;12.25;;;2.90;;
75470;SDS011;64051;46.320;48.028;2023-02-13T06:23:31;12.82;;;3.58;;
75470;SDS011;64051;46.320;48.028;2023-02-13T06:26:01;9.65;;;3.45;;
75470;SDS011;64051;46.320;48.028;2023-02-13T06:28:31;7.63;;;2.67;;
75470;SDS011;64051;46.320;48.028;2023-02-13T06:30:57;8.23;;;3.25;;
75470;SDS011;64051;46.320;48.028;2023-02-13T06:33:24;13.68;;;4.93;;
75470;SDS011;64051;46.320;48.028;2023-02-13T06:35:50;9.18;;;2.78;;
75470;SDS011;64051;46.320;48.028;2023-02-13T06:38:15;10.52;;;3.25;;
75470;SDS011;64051;46.320;48.028;2023-02-13T06:40:46;10.43;;;3.08;;
75470;SDS011;64051;46.320;48.028;2023-02-13T06:43:13;13.25;;;4.90;;
75470;SDS011;64051;46.320;48.028;2023-02-13T06:45:39;12.43;;;4.45;;
75470;SDS011;64051;46.320;48.028;2023-02-13T06:48:06;13.60;;;4.32;;
75470;SDS011;64051;46.320;48.028;2023-02-13T06:50:32;9.18;;;3.30;;
75470;SDS011;64051;46.320;48.028;2023-02-13T06:53:01;11.60;;;3.80;;
75470;SDS011;64051;46.320;48.028;2023-02-13T06:55:30;8.20;;;3.60;;
75470;SDS011;64051;46.320;48.028;2023-02-13T06:57:59;8.45;;;3.80;;
75470;SDS011;64051;46.320;48.028;2023-02-13T07:00:28;8.65;;;3.75;;
75470;SDS011;64051;46.320;48.028;2023-02-13T07:03:03;9.85;;;4.75;;
75470;SDS011;64051;46.320;48.028;2023-02-13T07:05:30;9.95;;;4.68;;
75470;SDS011;64051;46.320;48.028;2023-02-13T07:07:57;14.10;;;5.60;;
75470;SDS011;64051;46.320;48.028;2023-02-13T07:10:25;12.38;;;5.22;;
75470;SDS011;64051;46.320;48.028;2023-02-13T07:12:57;10.13;;;5.35;;
75470;SDS011;64051;46.320;48.028;2023-02-13T07:15:23;10.95;;;4.72;;
75470;SDS011;64051;46.320;48.028;2023-02-13T07:17:56;14.00;;;5.47;;
75470;SDS011;64051;46.320;48.028;2023-02-13T07:20:27;11.18;;;4.72;;
75470;SDS011;64051;46.320;48.028;2023-02-13T07:22:57;8.77;;;4.03;;
75470;SDS011;64051;46.320;48.028;2023-02-13T07:25:32;11.88;;;5.25;;
75470;SDS011;64051;46.320;48.028;2023-02-13T07:28:00;15.02;;;5.90;;
75470;SDS011;64051;46.320;48.028;2023-02-13T07:30:28;15.63;;;6.43;;
75470;SDS011;64051;46.320;48.028;2023-02-13T08:08:07;9.70;;;4.07;;
75470;SDS011;64051;46.320;48.028;2023-02-13T08:10:33;6.38;;;2.88;;
75470;SDS011;64051;46.320;48.028;2023-02-13T08:13:18;9.20;;;3.65;;
75470;SDS011;64051;46.320;48.028;2023-02-13T08:15:44;7.88;;;3.08;;
75470;SDS011;64051;46.320;48.028;2023-02-13T08:18:10;8.75;;;2.80;;
75470;SDS011;64051;46.320;48.028;2023-02-13T08:20:35;9.45;;;3.25;;
75470;SDS011;64051;46.320;48.028;2023-02-13T08:23:05;7.60;;;3.22;;
75470;SDS011;64051;46.320;48.028;2023-02-13T08:25:34;8.50;;;3.22;;
75470;SDS011;64051;46.320;48.028;2023-02-13T08:28:00;10.30;;;4.18;;
75470;SDS011;64051;46.320;48.028;2023-02-13T08:30:26;9.77;;;3.80;;
75470;SDS011;64051;46.320;48.028;2023-02-13T08:32:53;9.35;;;3.38;;
75470;SDS011;64051;46.320;48.028;2023-02-13T08:35:22;8.90;;;3.28;;
75470;SDS011;64051;46.320;48.028;2023-02-13T08:37:53;8.85;;;3.05;;
75470;SDS011;64051;46.320;48.028;2023-02-13T08:40:32;6.88;;;3.25;;
75470;SDS011;64051;46.320;48.028;2023-02-13T08:43:04;8.35;;;3.45;;
75470;SDS011;64051;46.320;48.028;2023-02-13T08:45:36;8.20;;;3.88;;
75470;SDS011;64051;46.320;48.028;2023-02-13T08:48:05;10.15;;;4.68;;
75470;SDS011;64051;46.320;48.028;2023-02-13T08:50:31;9.60;;;3.70;;
75470;SDS011;64051;46.320;48.028;2023-02-13T08:53:00;10.13;;;4.75;;
75470;SDS011;64051;46.320;48.028;2023-02-13T08:55:29;7.88;;;3.20;;
75470;SDS011;64051;46.320;48.028;2023-02-13T08:57:59;8.80;;;3.80;;
75470;SDS011;64051;46.320;48.028;2023-02-13T09:00:26;10.68;;;4.13;;
75470;SDS011;64051;46.320;48.028;2023-02-13T09:02:53;10.23;;;4.03;;
75470;SDS011;64051;46.320;48.028;2023-02-13T09:05:19;9.85;;;4.40;;
75470;SDS011;64051;46.320;48.028;2023-02-13T09:07:45;7.05;;;2.03;;
75470;SDS011;64051;46.320;48.028;2023-02-13T09:10:11;8.98;;;4.22;;
75470;SDS011;64051;46.320;48.028;2023-02-13T09:12:37;8.25;;;3.92;;
75470;SDS011;64051;46.320;48.028;2023-02-13T09:15:05;10.25;;;3.85;;
75470;SDS011;64051;46.320;48.028;2023-02-13T09:17:31;9.90;;;3.65;;
75470;SDS011;64051;46.320;48.028;2023-02-13T09:19:57;10.90;;;4.60;;
75470;SDS011;64051;46.320;48.028;2023-02-13T09:22:23;15.23;;;5.90;;
75470;SDS011;64051;46.320;48.028;2023-02-13T09:24:55;10.80;;;4.13;;
75470;SDS011;64051;46.320;48.028;2023-02-13T09:27:29;10.45;;;4.43;;
75470;SDS011;64051;46.320;48.028;2023-02-13T09:29:59;12.68;;;5.25;;
75470;SDS011;64051;46.320;48.028;2023-02-13T09:32:25;11.02;;;4.55;;
75470;SDS011;64051;46.320;48.028;2023-02-13T09:34:54;10.60;;;4.13;;
75470;SDS011;64051;46.320;48.028;2023-02-13T09:37:20;11.80;;;5.70;;
75470;SDS011;64051;46.320;48.028;2023-02-13T09:39:50;11.38;;;4.93;;
75470;SDS011;64051;46.320;48.028;2023-02-13T09:42:29;15.80;;;6.25;;
75470;SDS011;64051;46.320;48.028;2023-02-13T09:45:02;5.80;;;3.03;;
75470;SDS011;64051;46.320;48.028;2023-02-13T09:47:31;8.85;;;4.70;;
75470;SDS011;64051;46.320;48.028;2023-02-13T09:52:54;18.73;;;5.45;;
75470;SDS011;64051;46.320;48.028;2023-02-13T09:55:33;12.88;;;5.40;;
75470;SDS011;64051;46.320;48.028;2023-02-13T09:58:25;13.93;;;6.28;;
75470;SDS011;64051;46.320;48.028;2023-02-13T10:00:59;12.95;;;4.65;;
75470;SDS011;64051;46.320;48.028;2023-02-13T10:03:39;13.13;;;5.57;;
75470;SDS011;64051;46.320;48.028;2023-02-13T10:06:24;11.98;;;4.60;;
75470;SDS011;64051;46.320;48.028;2023-02-13T10:17:28;11.95;;;4.53;;
75470;SDS011;64051;46.320;48.028;2023-02-13T10:20:50;13.75;;;5.25;;
75470;SDS011;64051;46.320;48.028;2023-02-13T10:26:20;10.10;;;4.47;;
75470;SDS011;64051;46.320;48.028;2023-02-13T10:28:58;12.90;;;5.05;;
75470;SDS011;64051;46.320;48.028;2023-02-13T10:31:50;15.50;;;6.13;;
75470;SDS011;64051;46.320;48.028;2023-02-13T10:34:26;14.57;;;6.00;;
75470;SDS011;64051;46.320;48.028;2023-02-13T10:37:02;15.07;;;5.97;;
75470;SDS011;64051;46.320;48.028;2023-02-13T10:39:50;14.30;;;5.60;;
75470;SDS011;64051;46.320;48.028;2023-02-13T10:42:21;16.92;;;5.95;;
75470;SDS011;64051;46.320;48.028;2023-02-13T11:02:11;13.27;;;4.85;;
75470;SDS011;64051;46.320;48.028;2023-02-13T11:04:56;11.80;;;4.68;;
75470;SDS011;64051;46.320;48.028;2023-02-13T11:07:46;12.00;;;5.70;;
75470;SDS011;64051;46.320;48.028;2023-02-13T11:10:14;12.50;;;4.20;;
75470;SDS011;64051;46.320;48.028;2023-02-13T11:12:50;6.80;;;3.35;;
75470;SDS011;64051;46.320;48.028;2023-02-13T11:15:30;11.07;;;5.18;;
75470;SDS011;64051;46.320;48.028;2023-02-13T11:18:12;11.57;;;5.47;;
75470;SDS011;64051;46.320;48.028;2023-02-13T11:20:57;11.98;;;4.80;;
75470;SDS011;64051;46.320;48.028;2023-02-13T11:23:34;13.20;;;4.90;;
75470;SDS011;64051;46.320;48.028;2023-02-13T11:33:47;15.05;;;5.22;;
75470;SDS011;64051;46.320;48.028;2023-02-13T11:36:14;13.02;;;5.40;;
75470;SDS011;64051;46.320;48.028;2023-02-13T11:38:41;12.88;;;4.20;;
75470;SDS011;64051;46.320;48.028;2023-02-13T11:41:09;10.65;;;4.35;;
75470;SDS011;64051;46.320;48.028;2023-02-13T11:43:46;10.95;;;4.13;;
75470;SDS011;64051;46.320;48.028;2023-02-13T11:46:22;10.32;;;4.28;;
75470;SDS011;64051;46.320;48.028;2023-02-13T11:49:12;11.20;;;4.55;;
75470;SDS011;64051;46.320;48.028;2023-02-13T11:51:58;12.82;;;5.03;;
75470;SDS011;64051;46.320;48.028;2023-02-13T11:54:36;8.18;;;3.75;;
75470;SDS011;64051;46.320;48.028;2023-02-13T11:57:29;9.07;;;3.85;;
75470;SDS011;64051;46.320;48.028;2023-02-13T12:00:00;7.72;;;2.67;;
75470;SDS011;64051;46.320;48.028;2023-02-13T12:02:47;8.68;;;3.13;;
75470;SDS011;64051;46.320;48.028;2023-02-13T12:05:23;10.40;;;4.15;;
75470;SDS011;64051;46.320;48.028;2023-02-13T12:07:56;5.22;;;2.00;;
75470;SDS011;64051;46.320;48.028;2023-02-13T12:10:27;11.50;;;4.35;;
75470;SDS011;64051;46.320;48.028;2023-02-13T12:12:58;5.60;;;2.20;;
75470;SDS011;64051;46.320;48.028;2023-02-13T12:15:36;2.95;;;1.50;;
75470;SDS011;64051;46.320;48.028;2023-02-13T12:26:31;5.32;;;2.33;;
75470;SDS011;64051;46.320;48.028;2023-02-13T12:43:08;3.97;;;1.77;;
75470;SDS011;64051;46.320;48.028;2023-02-13T12:46:05;5.43;;;2.38;;
75470;SDS011;64051;46.320;48.028;2023-02-13T12:51:52;6.57;;;2.58;;
75470;SDS011;64051;46.320;48.028;2023-02-13T12:54:39;5.32;;;1.77;;
75470;SDS011;64051;46.320;48.028;2023-02-13T12:57:52;5.03;;;2.50;;
75470;SDS011;64051;46.320;48.028;2023-02-13T13:15:29;5.13;;;2.05;;
75470;SDS011;64051;46.320;48.028;2023-02-13T13:23:51;7.28;;;2.30;;
75470;SDS011;64051;46.320;48.028;2023-02-13T13:28:59;6.20;;;2.92;;
75470;SDS011;64051;46.320;48.028;2023-02-13T13:31:57;2.38;;;1.15;;
75470;SDS011;64051;46.320;48.028;2023-02-13T13:34:30;6.28;;;2.15;;
75470;SDS011;64051;46.320;48.028;2023-02-13T13:37:45;1.45;;;1.23;;
75470;SDS011;64051;46.320;48.028;2023-02-13T13:48:36;4.53;;;2.08;;
75470;SDS011;64051;46.320;48.028;2023-02-13T13:51:08;2.15;;;1.42;;
75470;SDS011;64051;46.320;48.028;2023-02-13T13:54:23;7.82;;;3.45;;
75470;SDS011;64051;46.320;48.028;2023-02-13T14:05:09;5.47;;;2.35;;
75470;SDS011;64051;46.320;48.028;2023-02-13T14:07:59;8.20;;;2.88;;
75470;SDS011;64051;46.320;48.028;2023-02-13T14:26:29;4.88;;;2.35;;
75470;SDS011;64051;46.320;48.028;2023-02-13T14:29:20;5.95;;;2.05;;
75470;SDS011;64051;46.320;48.028;2023-02-13T14:31:58;6.03;;;2.22;;
75470;SDS011;64051;46.320;48.028;2023-02-13T14:35:25;4.30;;;1.90;;
75470;SDS011;64051;46.320;48.028;2023-02-13T14:38:03;6.07;;;2.67;;
75470;SDS011;64051;46.320;48.028;2023-02-13T14:45:55;5.00;;;2.08;;
75470;SDS011;64051;46.320;48.028;2023-02-13T14:51:32;4.43;;;1.73;;
75470;SDS011;64051;46.320;48.028;2023-02-13T14:54:05;6.07;;;2.05;;
75470;SDS011;64051;46.320;48.028;2023-02-13T14:57:03;4.82;;;2.30;;
75470;SDS011;64051;46.320;48.028;2023-02-13T14:59:54;6.47;;;2.40;;
75470;SDS011;64051;46.320;48.028;2023-02-13T15:02:29;4.32;;;1.90;;
75470;SDS011;64051;46.320;48.028;2023-02-13T15:05:13;7.65;;;3.42;;
75470;SDS011;64051;46.320;48.028;2023-02-13T15:10:50;6.15;;;2.00;;
75470;SDS011;64051;46.320;48.028;2023-02-13T15:13:22;6.28;;;2.75;;
75470;SDS011;64051;46.320;48.028;2023-02-13T15:18:44;5.85;;;2.85;;
75470;SDS011;64051;46.320;48.028;2023-02-13T15:21:15;4.35;;;1.45;;
75470;SDS011;64051;46.320;48.028;2023-02-13T15:23:51;4.13;;;2.20;;
75470;SDS011;64051;46.320;48.028;2023-02-13T15:26:25;3.00;;;1.77;;
75470;SDS011;64051;46.320;48.028;2023-02-13T15:29:03;2.60;;;1.50;;
75470;SDS011;64051;46.320;48.028;2023-02-13T15:31:40;8.50;;;3.10;;
75470;SDS011;64051;46.320;48.028;2023-02-13T15:37:00;23.17;;;7.05;;
75470;SDS011;64051;46.320;48.028;2023-02-13T15:39:47;39.38;;;18.00;;
75470;SDS011;64051;46.320;48.028;2023-02-13T15:42:21;100.45;;;37.30;;
75470;SDS011;64051;46.320;48.028;2023-02-13T15:44:48;65.97;;;25.85;;
75470;SDS011;64051;46.320;48.028;2023-02-13T15:47:27;32.08;;;12.85;;
75470;SDS011;64051;46.320;48.028;2023-02-13T15:49:59;11.93;;;4.63;;
75470;SDS011;64051;46.320;48.028;2023-02-13T15:52:41;4.30;;;2.55;;
75470;SDS011;64051;46.320;48.028;2023-02-13T15:55:17;4.60;;;2.13;;
75470;SDS011;64051;46.320;48.028;2023-02-13T15:57:57;5.20;;;2.00;;
75470;SDS011;64051;46.320;48.028;2023-02-13T16:00:29;3.13;;;1.75;;
75470;SDS011;64051;46.320;48.028;2023-02-13T16:03:01;3.45;;;1.80;;
75470;SDS011;64051;46.320;48.028;2023-02-13T16:05:48;5.90;;;1.88;;
75470;SDS011;64051;46.320;48.028;2023-02-13T16:08:33;5.28;;;2.00;;
75470;SDS011;64051;46.320;48.028;2023-02-13T16:11:15;4.25;;;1.65;;
75470;SDS011;64051;46.320;48.028;2023-02-13T16:17:05;4.85;;;2.72;;
75470;SDS011;64051;46.320;48.028;2023-02-13T16:19:55;2.60;;;1.52;;
75470;SDS011;64051;46.320;48.028;2023-02-13T16:35:50;4.35;;;2.00;;
75470;SDS011;64051;46.320;48.028;2023-02-13T16:38:27;6.00;;;2.25;;
75470;SDS011;64051;46.320;48.028;2023-02-13T16:41:05;5.53;;;2.13;;
75470;SDS011;64051;46.320;48.028;2023-02-13T16:44:23;3.42;;;1.98;;
75470;SDS011;64051;46.320;48.028;2023-02-13T16:47:11;3.17;;;1.38;;
75470;SDS011;64051;46.320;48.028;2023-02-13T16:49:53;2.55;;;1.05;;
75470;SDS011;64051;46.320;48.028;2023-02-13T16:52:24;4.13;;;2.13;;
75470;SDS011;64051;46.320;48.028;2023-02-13T16:55:00;2.53;;;1.42;;
75470;SDS011;64051;46.320;48.028;2023-02-13T16:57:36;4.00;;;1.85;;
75470;SDS011;64051;46.320;48.028;2023-02-13T17:00:04;4.18;;;1.80;;
75470;SDS011;64051;46.320;48.028;2023-02-13T17:02:53;4.88;;;2.10;;
75470;SDS011;64051;46.320;48.028;2023-02-13T17:05:28;8.25;;;2.70;;
75470;SDS011;64051;46.320;48.028;2023-02-13T17:07:57;3.65;;;1.50;;
75470;SDS011;64051;46.320;48.028;2023-02-13T17:13:17;2.30;;;1.30;;
75470;SDS011;64051;46.320;48.028;2023-02-13T17:15:55;7.47;;;2.58;;
75470;SDS011;64051;46.320;48.028;2023-02-13T17:18:26;11.32;;;3.33;;
75470;SDS011;64051;46.320;48.028;2023-02-13T17:20:52;1.55;;;1.20;;
75470;SDS011;64051;46.320;48.028;2023-02-13T17:23:33;4.70;;;2.30;;
75470;SDS011;64051;46.320;48.028;2023-02-13T17:26:04;3.53;;;1.75;;
75470;SDS011;64051;46.320;48.028;2023-02-13T17:28:30;4.72;;;2.03;;
75470;SDS011;64051;46.320;48.028;2023-02-13T17:31:03;5.22;;;1.63;;
75470;SDS011;64051;46.320;48.028;2023-02-13T17:33:43;3.70;;;1.95;;
75470;SDS011;64051;46.320;48.028;2023-02-13T17:36:12;4.40;;;1.70;;
75470;SDS011;64051;46.320;48.028;2023-02-13T17:38:41;4.07;;;1.85;;
75470;SDS011;64051;46.320;48.028;2023-02-13T17:41:16;7.60;;;3.20;;
75470;SDS011;64051;46.320;48.028;2023-02-13T17:44:09;4.35;;;2.40;;
75470;SDS011;64051;46.320;48.028;2023-02-13T17:46:47;9.40;;;2.85;;
75470;SDS011;64051;46.320;48.028;2023-02-13T17:49:26;2.33;;;1.73;;
75470;SDS011;64051;46.320;48.028;2023-02-13T17:51:56;6.03;;;2.60;;
75470;SDS011;64051;46.320;48.028;2023-02-13T17:54:25;4.30;;;2.28;;
75470;SDS011;64051;46.320;48.028;2023-02-13T17:56:52;4.30;;;1.92;;
75470;SDS011;64051;46.320;48.028;2023-02-13T17:59:24;2.80;;;1.45;;
75470;SDS011;64051;46.320;48.028;2023-02-13T18:01:56;5.35;;;1.85;;
75470;SDS011;64051;46.320;48.028;2023-02-13T18:04:37;6.97;;;2.97;;
75470;SDS011;64051;46.320;48.028;2023-02-13T18:07:06;6.55;;;2.83;;
75470;SDS011;64051;46.320;48.028;2023-02-13T18:12:11;7.18;;;3.20;;
75470;SDS011;64051;46.320;48.028;2023-02-13T18:14:46;3.60;;;2.10;;
75470;SDS011;64051;46.320;48.028;2023-02-13T18:17:23;5.15;;;2.47;;
75470;SDS011;64051;46.320;48.028;2023-02-13T18:19:55;12.98;;;2.25;;
75470;SDS011;64051;46.320;48.028;2023-02-13T18:22:27;4.28;;;2.22;;
75470;SDS011;64051;46.320;48.028;2023-02-13T18:24:53;6.68;;;2.67;;
75470;SDS011;64051;46.320;48.028;2023-02-13T18:27:45;5.45;;;2.33;;
75470;SDS011;64051;46.320;48.028;2023-02-13T18:30:24;8.75;;;3.28;;
75470;SDS011;64051;46.320;48.028;2023-02-13T18:32:54;6.85;;;2.63;;
75470;SDS011;64051;46.320;48.028;2023-02-13T18:35:26;4.32;;;2.28;;
75470;SDS011;64051;46.320;48.028;2023-02-13T18:37:52;7.50;;;3.50;;
75470;SDS011;64051;46.320;48.028;2023-02-13T18:40:24;5.97;;;3.28;;
75470;SDS011;64051;46.320;48.028;2023-02-13T18:42:53;6.35;;;2.15;;
75470;SDS011;64051;46.320;48.028;2023-02-13T18:45:27;8.98;;;4.60;;
75470;SDS011;64051;46.320;48.028;2023-02-13T18:47:59;8.50;;;3.47;;
75470;SDS011;64051;46.320;48.028;2023-02-13T18:50:28;7.90;;;3.15;;
75470;SDS011;64051;46.320;48.028;2023-02-13T18:52:54;7.00;;;3.22;;
75470;SDS011;64051;46.320;48.028;2023-02-13T18:55:20;5.97;;;3.03;;
75470;SDS011;64051;46.320;48.028;2023-02-13T18:57:46;6.53;;;2.58;;
75470;SDS011;64051;46.320;48.028;2023-02-13T19:00:18;6.60;;;2.95;;
75470;SDS011;64051;46.320;48.028;2023-02-13T19:02:50;5.93;;;2.50;;
75470;SDS011;64051;46.320;48.028;2023-02-13T19:05:17;5.05;;;2.65;;
75470;SDS011;64051;46.320;48.028;2023-02-13T19:08:08;9.90;;;4.43;;
75470;SDS011;64051;46.320;48.028;2023-02-13T19:10:37;4.05;;;1.55;;
75470;SDS011;64051;46.320;48.028;2023-02-13T19:13:03;8.82;;;3.10;;
75470;SDS011;64051;46.320;48.028;2023-02-13T19:15:29;6.82;;;2.92;;
75470;SDS011;64051;46.320;48.028;2023-02-13T19:17:55;6.20;;;2.53;;
75470;SDS011;64051;46.320;48.028;2023-02-13T19:20:30;5.57;;;2.90;;
75470;SDS011;64051;46.320;48.028;2023-02-13T19:22:56;8.57;;;4.00;;
75470;SDS011;64051;46.320;48.028;2023-02-13T19:25:22;8.27;;;3.85;;
75470;SDS011;64051;46.320;48.028;2023-02-13T19:27:50;5.63;;;2.25;;
75470;SDS011;64051;46.320;48.028;2023-02-13T19:30:16;8.60;;;2.95;;
75470;SDS011;64051;46.320;48.028;2023-02-13T19:32:52;4.72;;;2.03;;
